sensor_id;sensor_type;location;lat;lon;timestamp;temperature;humidity
2839;DHT22;1427;48.510;9.060;2022-07-23T00:02:14;22.60;99.90
2839;DHT22;1427;48.510;9.060;2022-07-23T00:04:42;22.70;99.90
2839;DHT22;1427;48.510;9.060;2022-07-23T00:07:10;22.70;99.90
2839;DHT22;1427;48.510;9.060;2022-07-23T00:09:38;22.70;99.90
2839;DHT22;1427;48.510;9.060;2022-07-23T00:12:06;22.70;99.90
2839;DHT22;1427;48.510;9.060;2022-07-23T00:14:34;22.70;99.90
2839;DHT22;1427;48.510;9.060;2022-07-23T00:17:02;22.90;99.90
2839;DHT22;1427;48.510;9.060;2022-07-23T00:19:32;23.10;99.90
2839;DHT22;1427;48.510;9.060;2022-07-23T00:22:00;23.30;99.90
2839;DHT22;1427;48.510;9.060;2022-07-23T00:24:28;23.00;99.90
2839;DHT22;1427;48.510;9.060;2022-07-23T00:26:56;23.10;99.90
2839;DHT22;1427;48.510;9.060;2022-07-23T00:29:24;23.00;99.90
2839;DHT22;1427;48.510;9.060;2022-07-23T00:31:51;23.00;99.90
2839;DHT22;1427;48.510;9.060;2022-07-23T00:34:19;23.00;99.90
2839;DHT22;1427;48.510;9.060;2022-07-23T00:36:49;23.00;99.90
2839;DHT22;1427;48.510;9.060;2022-07-23T00:39:17;23.00;99.90
2839;DHT22;1427;48.510;9.060;2022-07-23T00:41:45;23.00;99.90
2839;DHT22;1427;48.510;9.060;2022-07-23T00:44:17;23.10;99.90
2839;DHT22;1427;48.510;9.060;2022-07-23T00:46:46;22.90;99.90
2839;DHT22;1427;48.510;9.060;2022-07-23T00:49:15;22.80;99.90
2839;DHT22;1427;48.510;9.060;2022-07-23T00:51:43;22.70;99.90
2839;DHT22;1427;48.510;9.060;2022-07-23T00:54:12;22.60;99.90
2839;DHT22;1427;48.510;9.060;2022-07-23T00:56:41;22.60;99.90
2839;DHT22;1427;48.510;9.060;2022-07-23T00:59:10;22.60;99.90
2839;DHT22;1427;48.510;9.060;2022-07-23T01:01:39;22.50;99.90
2839;DHT22;1427;48.510;9.060;2022-07-23T01:04:07;22.70;99.90
2839;DHT22;1427;48.510;9.060;2022-07-23T01:06:37;22.40;99.90
2839;DHT22;1427;48.510;9.060;2022-07-23T01:09:06;22.40;99.90
2839;DHT22;1427;48.510;9.060;2022-07-23T01:11:36;22.40;99.90
2839;DHT22;1427;48.510;9.060;2022-07-23T01:14:09;22.40;99.90
2839;DHT22;1427;48.510;9.060;2022-07-23T01:16:37;22.40;99.90
2839;DHT22;1427;48.510;9.060;2022-07-23T01:19:05;22.40;99.90
2839;DHT22;1427;48.510;9.060;2022-07-23T01:21:36;22.40;99.90
2839;DHT22;1427;48.510;9.060;2022-07-23T01:24:06;22.40;99.90
2839;DHT22;1427;48.510;9.060;2022-07-23T01:26:35;22.40;99.90
2839;DHT22;1427;48.510;9.060;2022-07-23T01:29:04;22.30;99.90
2839;DHT22;1427;48.510;9.060;2022-07-23T01:31:32;22.30;99.90
2839;DHT22;1427;48.510;9.060;2022-07-23T01:34:00;22.30;99.90
2839;DHT22;1427;48.510;9.060;2022-07-23T01:36:28;22.30;99.90
2839;DHT22;1427;48.510;9.060;2022-07-23T01:38:56;22.40;99.90
2839;DHT22;1427;48.510;9.060;2022-07-23T01:41:26;22.30;99.90
2839;DHT22;1427;48.510;9.060;2022-07-23T01:43:55;22.30;99.90
2839;DHT22;1427;48.510;9.060;2022-07-23T01:46:23;22.30;99.90
2839;DHT22;1427;48.510;9.060;2022-07-23T01:48:51;22.30;99.90
2839;DHT22;1427;48.510;9.060;2022-07-23T01:51:20;22.30;99.90
2839;DHT22;1427;48.510;9.060;2022-07-23T01:53:48;22.30;99.90
2839;DHT22;1427;48.510;9.060;2022-07-23T01:56:16;22.30;99.90
2839;DHT22;1427;48.510;9.060;2022-07-23T01:58:47;22.30;99.90
2839;DHT22;1427;48.510;9.060;2022-07-23T02:01:15;22.20;99.90
2839;DHT22;1427;48.510;9.060;2022-07-23T02:03:43;22.30;99.90
2839;DHT22;1427;48.510;9.060;2022-07-23T02:06:11;22.10;99.90
2839;DHT22;1427;48.510;9.060;2022-07-23T02:08:39;22.10;99.90
2839;DHT22;1427;48.510;9.060;2022-07-23T02:11:08;22.20;99.90
2839;DHT22;1427;48.510;9.060;2022-07-23T02:13:36;22.30;99.90
2839;DHT22;1427;48.510;9.060;2022-07-23T02:16:05;22.20;99.90
2839;DHT22;1427;48.510;9.060;2022-07-23T02:18:34;22.10;99.90
2839;DHT22;1427;48.510;9.060;2022-07-23T02:21:02;22.20;99.90
2839;DHT22;1427;48.510;9.060;2022-07-23T02:23:33;22.20;99.90
2839;DHT22;1427;48.510;9.060;2022-07-23T02:26:01;21.90;99.90
2839;DHT22;1427;48.510;9.060;2022-07-23T02:28:29;21.80;99.90
2839;DHT22;1427;48.510;9.060;2022-07-23T02:30:57;21.70;99.90
2839;DHT22;1427;48.510;9.060;2022-07-23T02:33:27;21.70;99.90
2839;DHT22;1427;48.510;9.060;2022-07-23T02:35:55;21.60;99.90
2839;DHT22;1427;48.510;9.060;2022-07-23T02:38:23;21.50;99.90
2839;DHT22;1427;48.510;9.060;2022-07-23T02:40:51;21.50;99.90
2839;DHT22;1427;48.510;9.060;2022-07-23T02:43:19;21.60;99.90
2839;DHT22;1427;48.510;9.060;2022-07-23T02:45:47;21.60;99.90
2839;DHT22;1427;48.510;9.060;2022-07-23T02:48:15;21.50;99.90
2839;DHT22;1427;48.510;9.060;2022-07-23T02:50:44;21.60;99.90
2839;DHT22;1427;48.510;9.060;2022-07-23T02:53:12;21.70;99.90
2839;DHT22;1427;48.510;9.060;2022-07-23T02:55:40;21.60;99.90
2839;DHT22;1427;48.510;9.060;2022-07-23T02:58:09;21.60;99.90
2839;DHT22;1427;48.510;9.060;2022-07-23T03:00:37;21.70;99.90
2839;DHT22;1427;48.510;9.060;2022-07-23T03:03:05;21.60;99.90
2839;DHT22;1427;48.510;9.060;2022-07-23T03:05:33;21.70;99.90
2839;DHT22;1427;48.510;9.060;2022-07-23T03:08:02;21.60;99.90
2839;DHT22;1427;48.510;9.060;2022-07-23T03:10:31;21.60;99.90
2839;DHT22;1427;48.510;9.060;2022-07-23T03:12:59;21.60;99.90
2839;DHT22;1427;48.510;9.060;2022-07-23T03:15:27;21.50;99.90
2839;DHT22;1427;48.510;9.060;2022-07-23T03:17:55;21.50;99.90
2839;DHT22;1427;48.510;9.060;2022-07-23T03:20:23;21.50;99.90
2839;DHT22;1427;48.510;9.060;2022-07-23T03:22:51;21.40;99.90
2839;DHT22;1427;48.510;9.060;2022-07-23T03:25:20;21.30;99.90
2839;DHT22;1427;48.510;9.060;2022-07-23T03:27:48;21.20;99.90
2839;DHT22;1427;48.510;9.060;2022-07-23T03:30:16;21.20;99.90
2839;DHT22;1427;48.510;9.060;2022-07-23T03:32:44;21.20;99.90
2839;DHT22;1427;48.510;9.060;2022-07-23T03:35:12;21.20;99.90
2839;DHT22;1427;48.510;9.060;2022-07-23T03:37:43;21.30;99.90
2839;DHT22;1427;48.510;9.060;2022-07-23T03:40:12;21.20;99.90
2839;DHT22;1427;48.510;9.060;2022-07-23T03:42:42;21.10;99.90
2839;DHT22;1427;48.510;9.060;2022-07-23T03:45:10;21.10;99.90
2839;DHT22;1427;48.510;9.060;2022-07-23T03:47:38;20.90;99.90
2839;DHT22;1427;48.510;9.060;2022-07-23T03:50:08;20.90;99.90
2839;DHT22;1427;48.510;9.060;2022-07-23T03:52:36;20.90;99.90
2839;DHT22;1427;48.510;9.060;2022-07-23T03:55:05;20.90;99.90
2839;DHT22;1427;48.510;9.060;2022-07-23T03:57:33;20.90;99.90
2839;DHT22;1427;48.510;9.060;2022-07-23T04:00:03;20.80;99.90
2839;DHT22;1427;48.510;9.060;2022-07-23T04:02:33;20.80;99.90
2839;DHT22;1427;48.510;9.060;2022-07-23T04:05:01;20.70;99.90
2839;DHT22;1427;48.510;9.060;2022-07-23T04:07:29;20.70;99.90
2839;DHT22;1427;48.510;9.060;2022-07-23T04:09:57;20.70;99.90
2839;DHT22;1427;48.510;9.060;2022-07-23T04:12:25;20.70;99.90
2839;DHT22;1427;48.510;9.060;2022-07-23T04:14:53;20.80;99.90
2839;DHT22;1427;48.510;9.060;2022-07-23T04:17:22;20.90;99.90
2839;DHT22;1427;48.510;9.060;2022-07-23T04:19:50;20.80;99.90
2839;DHT22;1427;48.510;9.060;2022-07-23T04:22:18;20.80;99.90
2839;DHT22;1427;48.510;9.060;2022-07-23T04:24:46;20.70;99.90
2839;DHT22;1427;48.510;9.060;2022-07-23T04:27:16;20.70;99.90
2839;DHT22;1427;48.510;9.060;2022-07-23T04:29:44;20.80;99.90
2839;DHT22;1427;48.510;9.060;2022-07-23T04:32:12;20.80;99.90
2839;DHT22;1427;48.510;9.060;2022-07-23T04:34:41;20.80;99.90
2839;DHT22;1427;48.510;9.060;2022-07-23T04:37:09;20.80;99.90
2839;DHT22;1427;48.510;9.060;2022-07-23T04:39:37;20.70;99.90
2839;DHT22;1427;48.510;9.060;2022-07-23T04:42:05;20.70;99.90
2839;DHT22;1427;48.510;9.060;2022-07-23T04:44:33;20.70;99.90
2839;DHT22;1427;48.510;9.060;2022-07-23T04:47:01;20.80;99.90
2839;DHT22;1427;48.510;9.060;2022-07-23T04:49:29;20.80;99.90
2839;DHT22;1427;48.510;9.060;2022-07-23T04:51:58;20.80;99.90
2839;DHT22;1427;48.510;9.060;2022-07-23T04:54:26;20.90;99.90
2839;DHT22;1427;48.510;9.060;2022-07-23T04:56:54;20.90;99.90
2839;DHT22;1427;48.510;9.060;2022-07-23T04:59:22;20.90;99.90
2839;DHT22;1427;48.510;9.060;2022-07-23T05:01:50;21.00;99.90
2839;DHT22;1427;48.510;9.060;2022-07-23T05:04:18;20.90;99.90
2839;DHT22;1427;48.510;9.060;2022-07-23T05:06:46;20.80;99.90
2839;DHT22;1427;48.510;9.060;2022-07-23T05:09:16;20.80;99.90
2839;DHT22;1427;48.510;9.060;2022-07-23T05:11:44;20.80;99.90
2839;DHT22;1427;48.510;9.060;2022-07-23T05:14:12;20.80;99.90
2839;DHT22;1427;48.510;9.060;2022-07-23T05:16:40;20.70;99.90
2839;DHT22;1427;48.510;9.060;2022-07-23T05:19:08;20.70;99.90
2839;DHT22;1427;48.510;9.060;2022-07-23T05:21:36;20.80;99.90
2839;DHT22;1427;48.510;9.060;2022-07-23T05:24:04;20.90;99.90
2839;DHT22;1427;48.510;9.060;2022-07-23T05:26:34;21.00;99.90
2839;DHT22;1427;48.510;9.060;2022-07-23T05:29:02;21.00;99.90
2839;DHT22;1427;48.510;9.060;2022-07-23T05:31:30;20.90;99.90
2839;DHT22;1427;48.510;9.060;2022-07-23T05:33:58;20.80;99.90
2839;DHT22;1427;48.510;9.060;2022-07-23T05:36:27;20.80;99.90
2839;DHT22;1427;48.510;9.060;2022-07-23T05:38:55;20.90;99.90
2839;DHT22;1427;48.510;9.060;2022-07-23T05:41:24;21.00;99.90
2839;DHT22;1427;48.510;9.060;2022-07-23T05:43:54;21.30;99.90
2839;DHT22;1427;48.510;9.060;2022-07-23T05:46:21;21.50;99.90
2839;DHT22;1427;48.510;9.060;2022-07-23T05:48:50;22.10;99.90
2839;DHT22;1427;48.510;9.060;2022-07-23T05:51:21;22.40;99.90
2839;DHT22;1427;48.510;9.060;2022-07-23T05:53:50;22.60;99.90
2839;DHT22;1427;48.510;9.060;2022-07-23T05:56:18;23.00;99.90
2839;DHT22;1427;48.510;9.060;2022-07-23T05:58:46;23.30;99.90
2839;DHT22;1427;48.510;9.060;2022-07-23T06:01:15;23.60;99.90
2839;DHT22;1427;48.510;9.060;2022-07-23T06:03:43;23.70;99.90
2839;DHT22;1427;48.510;9.060;2022-07-23T06:06:12;23.60;99.90
2839;DHT22;1427;48.510;9.060;2022-07-23T06:08:40;23.80;99.90
2839;DHT22;1427;48.510;9.060;2022-07-23T06:11:08;24.00;99.90
2839;DHT22;1427;48.510;9.060;2022-07-23T06:13:36;24.30;99.90
2839;DHT22;1427;48.510;9.060;2022-07-23T06:16:04;24.50;99.90
2839;DHT22;1427;48.510;9.060;2022-07-23T06:18:33;24.70;99.90
2839;DHT22;1427;48.510;9.060;2022-07-23T06:21:02;24.90;99.90
2839;DHT22;1427;48.510;9.060;2022-07-23T06:23:50;25.00;99.90
2839;DHT22;1427;48.510;9.060;2022-07-23T06:26:18;25.10;99.90
2839;DHT22;1427;48.510;9.060;2022-07-23T06:28:46;25.30;99.90
2839;DHT22;1427;48.510;9.060;2022-07-23T06:31:14;25.40;99.90
2839;DHT22;1427;48.510;9.060;2022-07-23T06:33:43;25.60;99.90
2839;DHT22;1427;48.510;9.060;2022-07-23T06:36:11;25.80;99.90
2839;DHT22;1427;48.510;9.060;2022-07-23T06:38:39;25.80;99.90
2839;DHT22;1427;48.510;9.060;2022-07-23T06:41:07;26.00;99.90
2839;DHT22;1427;48.510;9.060;2022-07-23T06:43:35;26.30;99.90
2839;DHT22;1427;48.510;9.060;2022-07-23T06:46:03;26.40;99.90
2839;DHT22;1427;48.510;9.060;2022-07-23T06:48:32;26.50;99.90
2839;DHT22;1427;48.510;9.060;2022-07-23T06:51:03;26.60;99.90
2839;DHT22;1427;48.510;9.060;2022-07-23T06:53:31;26.60;99.90
2839;DHT22;1427;48.510;9.060;2022-07-23T06:55:59;26.70;99.80
2839;DHT22;1427;48.510;9.060;2022-07-23T06:58:27;26.50;98.90
2839;DHT22;1427;48.510;9.060;2022-07-23T07:00:55;26.50;99.10
2839;DHT22;1427;48.510;9.060;2022-07-23T07:03:23;26.30;98.50
2839;DHT22;1427;48.510;9.060;2022-07-23T07:05:51;26.10;98.50
2839;DHT22;1427;48.510;9.060;2022-07-23T07:08:21;25.90;99.00
2839;DHT22;1427;48.510;9.060;2022-07-23T07:10:49;26.00;98.70
2839;DHT22;1427;48.510;9.060;2022-07-23T07:13:17;25.90;98.70
2839;DHT22;1427;48.510;9.060;2022-07-23T07:15:45;26.10;98.50
2839;DHT22;1427;48.510;9.060;2022-07-23T07:18:13;26.00;98.20
2839;DHT22;1427;48.510;9.060;2022-07-23T07:20:41;26.10;98.50
2839;DHT22;1427;48.510;9.060;2022-07-23T07:23:09;26.30;98.50
2839;DHT22;1427;48.510;9.060;2022-07-23T07:25:43;26.60;98.20
2839;DHT22;1427;48.510;9.060;2022-07-23T07:28:11;26.60;97.70
2839;DHT22;1427;48.510;9.060;2022-07-23T07:30:40;26.70;97.40
2839;DHT22;1427;48.510;9.060;2022-07-23T07:33:08;26.60;97.40
2839;DHT22;1427;48.510;9.060;2022-07-23T07:35:36;26.60;97.40
2839;DHT22;1427;48.510;9.060;2022-07-23T07:38:04;26.60;97.20
2839;DHT22;1427;48.510;9.060;2022-07-23T07:40:32;26.60;96.80
2839;DHT22;1427;48.510;9.060;2022-07-23T07:43:02;26.50;96.90
2839;DHT22;1427;48.510;9.060;2022-07-23T07:45:31;26.60;96.40
2839;DHT22;1427;48.510;9.060;2022-07-23T07:47:59;26.20;96.30
2839;DHT22;1427;48.510;9.060;2022-07-23T07:50:27;26.10;96.60
2839;DHT22;1427;48.510;9.060;2022-07-23T07:52:55;26.10;95.70
2839;DHT22;1427;48.510;9.060;2022-07-23T07:55:23;26.30;96.00
2839;DHT22;1427;48.510;9.060;2022-07-23T07:57:51;26.10;96.50
2839;DHT22;1427;48.510;9.060;2022-07-23T08:00:21;26.10;96.20
2839;DHT22;1427;48.510;9.060;2022-07-23T08:02:50;26.30;95.80
2839;DHT22;1427;48.510;9.060;2022-07-23T08:05:19;26.50;96.00
2839;DHT22;1427;48.510;9.060;2022-07-23T08:07:53;26.60;96.00
2839;DHT22;1427;48.510;9.060;2022-07-23T08:10:21;26.80;95.70
2839;DHT22;1427;48.510;9.060;2022-07-23T08:12:50;26.90;95.00
2839;DHT22;1427;48.510;9.060;2022-07-23T08:15:22;26.90;95.60
2839;DHT22;1427;48.510;9.060;2022-07-23T08:17:50;26.90;95.10
2839;DHT22;1427;48.510;9.060;2022-07-23T08:20:19;26.90;95.00
2839;DHT22;1427;48.510;9.060;2022-07-23T08:22:52;26.90;94.30
2839;DHT22;1427;48.510;9.060;2022-07-23T08:25:22;26.90;95.00
2839;DHT22;1427;48.510;9.060;2022-07-23T08:27:51;27.10;95.90
2839;DHT22;1427;48.510;9.060;2022-07-23T08:30:22;27.50;95.70
2839;DHT22;1427;48.510;9.060;2022-07-23T08:32:53;27.80;95.90
2839;DHT22;1427;48.510;9.060;2022-07-23T08:35:26;28.30;94.20
2839;DHT22;1427;48.510;9.060;2022-07-23T08:37:55;27.90;93.60
2839;DHT22;1427;48.510;9.060;2022-07-23T08:40:25;27.30;94.10
2839;DHT22;1427;48.510;9.060;2022-07-23T08:42:54;27.00;93.70
2839;DHT22;1427;48.510;9.060;2022-07-23T08:45:24;26.90;93.70
2839;DHT22;1427;48.510;9.060;2022-07-23T08:47:54;26.80;93.30
2839;DHT22;1427;48.510;9.060;2022-07-23T08:50:24;26.90;94.00
2839;DHT22;1427;48.510;9.060;2022-07-23T08:52:53;27.00;94.70
2839;DHT22;1427;48.510;9.060;2022-07-23T08:55:23;27.10;94.30
2839;DHT22;1427;48.510;9.060;2022-07-23T08:57:53;27.20;94.10
2839;DHT22;1427;48.510;9.060;2022-07-23T09:00:22;27.30;93.70
2839;DHT22;1427;48.510;9.060;2022-07-23T09:02:51;27.50;93.50
2839;DHT22;1427;48.510;9.060;2022-07-23T09:05:19;27.40;93.40
2839;DHT22;1427;48.510;9.060;2022-07-23T09:08:07;27.50;94.00
2839;DHT22;1427;48.510;9.060;2022-07-23T09:10:53;27.80;93.40
2839;DHT22;1427;48.510;9.060;2022-07-23T09:13:33;28.20;92.30
2839;DHT22;1427;48.510;9.060;2022-07-23T09:16:06;28.50;92.90
2839;DHT22;1427;48.510;9.060;2022-07-23T09:18:40;28.70;90.50
2839;DHT22;1427;48.510;9.060;2022-07-23T09:21:16;28.80;90.70
2839;DHT22;1427;48.510;9.060;2022-07-23T09:23:46;28.70;90.90
2839;DHT22;1427;48.510;9.060;2022-07-23T09:26:27;28.70;91.00
2839;DHT22;1427;48.510;9.060;2022-07-23T09:29:00;28.50;91.60
2839;DHT22;1427;48.510;9.060;2022-07-23T09:31:42;28.40;91.60
2839;DHT22;1427;48.510;9.060;2022-07-23T09:34:13;28.40;91.40
2839;DHT22;1427;48.510;9.060;2022-07-23T09:36:41;28.30;92.00
2839;DHT22;1427;48.510;9.060;2022-07-23T09:39:10;28.40;92.10
2839;DHT22;1427;48.510;9.060;2022-07-23T09:41:41;28.50;92.20
2839;DHT22;1427;48.510;9.060;2022-07-23T09:44:13;28.40;92.10
2839;DHT22;1427;48.510;9.060;2022-07-23T09:46:45;28.20;93.10
2839;DHT22;1427;48.510;9.060;2022-07-23T09:49:16;28.20;92.80
2839;DHT22;1427;48.510;9.060;2022-07-23T09:51:50;28.30;92.70
2839;DHT22;1427;48.510;9.060;2022-07-23T09:54:30;28.50;92.10
2839;DHT22;1427;48.510;9.060;2022-07-23T09:57:02;28.50;92.00
2839;DHT22;1427;48.510;9.060;2022-07-23T09:59:32;28.40;92.20
2839;DHT22;1427;48.510;9.060;2022-07-23T10:02:03;28.50;92.40
2839;DHT22;1427;48.510;9.060;2022-07-23T10:04:32;28.70;92.30
2839;DHT22;1427;48.510;9.060;2022-07-23T10:07:05;28.80;91.60
2839;DHT22;1427;48.510;9.060;2022-07-23T10:09:35;28.60;92.10
2839;DHT22;1427;48.510;9.060;2022-07-23T10:12:05;28.70;92.00
2839;DHT22;1427;48.510;9.060;2022-07-23T10:15:02;29.10;92.50
2839;DHT22;1427;48.510;9.060;2022-07-23T10:17:33;29.80;91.40
2839;DHT22;1427;48.510;9.060;2022-07-23T10:20:01;30.10;91.60
2839;DHT22;1427;48.510;9.060;2022-07-23T10:22:33;30.30;91.50
2839;DHT22;1427;48.510;9.060;2022-07-23T10:25:12;30.20;91.30
2839;DHT22;1427;48.510;9.060;2022-07-23T10:27:59;30.20;90.80
2839;DHT22;1427;48.510;9.060;2022-07-23T10:30:34;30.30;91.40
2839;DHT22;1427;48.510;9.060;2022-07-23T10:33:17;30.50;91.20
2839;DHT22;1427;48.510;9.060;2022-07-23T10:35:54;30.30;90.10
2839;DHT22;1427;48.510;9.060;2022-07-23T10:38:26;30.30;90.70
2839;DHT22;1427;48.510;9.060;2022-07-23T10:40:58;30.40;91.00
2839;DHT22;1427;48.510;9.060;2022-07-23T10:43:27;30.40;91.40
2839;DHT22;1427;48.510;9.060;2022-07-23T10:45:56;30.40;91.20
2839;DHT22;1427;48.510;9.060;2022-07-23T10:49:26;30.60;90.70
2839;DHT22;1427;48.510;9.060;2022-07-23T10:52:24;30.40;90.00
2839;DHT22;1427;48.510;9.060;2022-07-23T10:54:54;30.40;90.40
2839;DHT22;1427;48.510;9.060;2022-07-23T10:57:23;30.60;89.30
2839;DHT22;1427;48.510;9.060;2022-07-23T11:00:12;30.70;89.40
2839;DHT22;1427;48.510;9.060;2022-07-23T11:02:41;30.10;87.50
2839;DHT22;1427;48.510;9.060;2022-07-23T11:05:13;30.00;89.00
2839;DHT22;1427;48.510;9.060;2022-07-23T11:08:14;30.00;88.40
2839;DHT22;1427;48.510;9.060;2022-07-23T11:10:49;30.00;88.70
2839;DHT22;1427;48.510;9.060;2022-07-23T11:13:45;29.80;88.00
2839;DHT22;1427;48.510;9.060;2022-07-23T11:16:24;29.70;87.70
2839;DHT22;1427;48.510;9.060;2022-07-23T11:18:58;29.80;87.70
2839;DHT22;1427;48.510;9.060;2022-07-23T11:21:52;29.80;88.10
2839;DHT22;1427;48.510;9.060;2022-07-23T11:24:23;30.10;88.80
2839;DHT22;1427;48.510;9.060;2022-07-23T11:26:56;30.20;85.20
2839;DHT22;1427;48.510;9.060;2022-07-23T11:29:44;30.30;84.80
2839;DHT22;1427;48.510;9.060;2022-07-23T11:32:30;30.20;85.10
2839;DHT22;1427;48.510;9.060;2022-07-23T11:35:00;30.40;85.00
2839;DHT22;1427;48.510;9.060;2022-07-23T11:37:32;30.40;84.10
2839;DHT22;1427;48.510;9.060;2022-07-23T11:40:06;30.30;86.10
2839;DHT22;1427;48.510;9.060;2022-07-23T11:42:36;30.30;87.20
2839;DHT22;1427;48.510;9.060;2022-07-23T11:45:06;30.40;87.80
2839;DHT22;1427;48.510;9.060;2022-07-23T11:47:35;30.50;87.60
2839;DHT22;1427;48.510;9.060;2022-07-23T11:50:05;30.80;87.50
2839;DHT22;1427;48.510;9.060;2022-07-23T11:52:36;30.90;86.10
2839;DHT22;1427;48.510;9.060;2022-07-23T11:55:05;30.90;85.10
2839;DHT22;1427;48.510;9.060;2022-07-23T11:57:35;31.10;86.00
2839;DHT22;1427;48.510;9.060;2022-07-23T12:00:07;31.30;85.50
2839;DHT22;1427;48.510;9.060;2022-07-23T12:02:38;31.40;84.90
2839;DHT22;1427;48.510;9.060;2022-07-23T12:05:07;31.50;83.90
2839;DHT22;1427;48.510;9.060;2022-07-23T12:07:39;31.40;83.50
2839;DHT22;1427;48.510;9.060;2022-07-23T12:10:11;31.60;85.60
2839;DHT22;1427;48.510;9.060;2022-07-23T12:12:41;31.70;85.10
2839;DHT22;1427;48.510;9.060;2022-07-23T12:15:10;31.90;85.30
2839;DHT22;1427;48.510;9.060;2022-07-23T12:17:41;32.10;82.90
2839;DHT22;1427;48.510;9.060;2022-07-23T12:20:18;31.80;81.70
2839;DHT22;1427;48.510;9.060;2022-07-23T12:22:51;31.60;84.00
2839;DHT22;1427;48.510;9.060;2022-07-23T12:25:20;31.80;80.70
2839;DHT22;1427;48.510;9.060;2022-07-23T12:27:59;31.50;79.80
2839;DHT22;1427;48.510;9.060;2022-07-23T12:30:31;30.70;82.00
2839;DHT22;1427;48.510;9.060;2022-07-23T12:33:03;30.60;81.70
2839;DHT22;1427;48.510;9.060;2022-07-23T12:35:37;30.80;82.80
2839;DHT22;1427;48.510;9.060;2022-07-23T12:38:10;31.00;82.30
2839;DHT22;1427;48.510;9.060;2022-07-23T12:40:43;31.20;83.00
2839;DHT22;1427;48.510;9.060;2022-07-23T12:43:19;31.70;83.90
2839;DHT22;1427;48.510;9.060;2022-07-23T12:45:49;31.90;82.50
2839;DHT22;1427;48.510;9.060;2022-07-23T12:48:20;31.90;82.20
2839;DHT22;1427;48.510;9.060;2022-07-23T12:50:59;31.80;81.60
2839;DHT22;1427;48.510;9.060;2022-07-23T12:53:30;31.70;82.50
2839;DHT22;1427;48.510;9.060;2022-07-23T12:56:04;31.70;82.70
2839;DHT22;1427;48.510;9.060;2022-07-23T12:58:43;31.50;82.20
2839;DHT22;1427;48.510;9.060;2022-07-23T13:01:24;31.50;81.80
2839;DHT22;1427;48.510;9.060;2022-07-23T13:03:59;31.50;81.90
2839;DHT22;1427;48.510;9.060;2022-07-23T13:06:28;31.60;80.80
2839;DHT22;1427;48.510;9.060;2022-07-23T13:08:58;31.70;83.90
2839;DHT22;1427;48.510;9.060;2022-07-23T13:11:28;31.80;80.60
2839;DHT22;1427;48.510;9.060;2022-07-23T13:13:56;31.60;80.70
2839;DHT22;1427;48.510;9.060;2022-07-23T13:16:24;31.50;82.80
2839;DHT22;1427;48.510;9.060;2022-07-23T13:18:54;31.30;81.20
2839;DHT22;1427;48.510;9.060;2022-07-23T13:21:25;31.30;81.20
2839;DHT22;1427;48.510;9.060;2022-07-23T13:23:55;31.20;81.70
2839;DHT22;1427;48.510;9.060;2022-07-23T13:26:25;31.10;80.70
2839;DHT22;1427;48.510;9.060;2022-07-23T13:28:53;31.20;82.40
2839;DHT22;1427;48.510;9.060;2022-07-23T13:31:21;31.20;79.40
2839;DHT22;1427;48.510;9.060;2022-07-23T13:33:50;31.20;79.80
2839;DHT22;1427;48.510;9.060;2022-07-23T13:36:18;31.00;77.50
2839;DHT22;1427;48.510;9.060;2022-07-23T13:38:46;31.00;77.60
2839;DHT22;1427;48.510;9.060;2022-07-23T13:41:16;31.00;78.80
2839;DHT22;1427;48.510;9.060;2022-07-23T13:43:46;30.90;79.60
2839;DHT22;1427;48.510;9.060;2022-07-23T13:46:14;30.80;80.00
2839;DHT22;1427;48.510;9.060;2022-07-23T13:48:42;30.70;79.80
2839;DHT22;1427;48.510;9.060;2022-07-23T13:51:10;30.50;80.60
2839;DHT22;1427;48.510;9.060;2022-07-23T13:53:39;30.40;81.90
2839;DHT22;1427;48.510;9.060;2022-07-23T13:56:07;30.10;81.90
2839;DHT22;1427;48.510;9.060;2022-07-23T13:58:36;29.90;84.10
2839;DHT22;1427;48.510;9.060;2022-07-23T14:01:06;29.90;85.70
2839;DHT22;1427;48.510;9.060;2022-07-23T14:03:34;29.80;86.70
2839;DHT22;1427;48.510;9.060;2022-07-23T14:06:03;29.90;86.50
2839;DHT22;1427;48.510;9.060;2022-07-23T14:08:42;29.80;85.80
2839;DHT22;1427;48.510;9.060;2022-07-23T14:11:10;29.60;84.50
2839;DHT22;1427;48.510;9.060;2022-07-23T14:13:38;29.50;85.80
2839;DHT22;1427;48.510;9.060;2022-07-23T14:16:08;29.60;87.10
2839;DHT22;1427;48.510;9.060;2022-07-23T14:18:36;29.70;87.00
2839;DHT22;1427;48.510;9.060;2022-07-23T14:21:04;29.80;87.30
2839;DHT22;1427;48.510;9.060;2022-07-23T14:23:32;29.90;86.80
2839;DHT22;1427;48.510;9.060;2022-07-23T14:26:01;29.80;85.00
2839;DHT22;1427;48.510;9.060;2022-07-23T14:28:32;29.70;85.10
2839;DHT22;1427;48.510;9.060;2022-07-23T14:31:02;29.50;85.90
2839;DHT22;1427;48.510;9.060;2022-07-23T14:33:31;29.40;86.00
2839;DHT22;1427;48.510;9.060;2022-07-23T14:36:00;29.30;86.90
2839;DHT22;1427;48.510;9.060;2022-07-23T14:38:28;29.40;88.00
2839;DHT22;1427;48.510;9.060;2022-07-23T14:40:57;29.60;86.90
2839;DHT22;1427;48.510;9.060;2022-07-23T14:43:25;29.70;85.60
2839;DHT22;1427;48.510;9.060;2022-07-23T14:45:54;29.90;86.60
2839;DHT22;1427;48.510;9.060;2022-07-23T14:48:23;30.00;84.10
2839;DHT22;1427;48.510;9.060;2022-07-23T14:50:52;30.20;82.70
2839;DHT22;1427;48.510;9.060;2022-07-23T14:53:20;30.20;82.90
2839;DHT22;1427;48.510;9.060;2022-07-23T14:55:51;30.10;82.30
2839;DHT22;1427;48.510;9.060;2022-07-23T14:58:21;30.20;82.30
2839;DHT22;1427;48.510;9.060;2022-07-23T15:00:49;30.10;82.80
2839;DHT22;1427;48.510;9.060;2022-07-23T15:03:17;30.00;83.10
2839;DHT22;1427;48.510;9.060;2022-07-23T15:05:46;30.10;81.10
2839;DHT22;1427;48.510;9.060;2022-07-23T15:08:15;30.10;81.40
2839;DHT22;1427;48.510;9.060;2022-07-23T15:10:49;30.10;82.20
2839;DHT22;1427;48.510;9.060;2022-07-23T15:13:17;30.10;80.30
2839;DHT22;1427;48.510;9.060;2022-07-23T15:15:45;30.10;81.70
2839;DHT22;1427;48.510;9.060;2022-07-23T15:18:20;30.10;82.70
2839;DHT22;1427;48.510;9.060;2022-07-23T15:20:48;30.20;81.70
2839;DHT22;1427;48.510;9.060;2022-07-23T15:23:17;30.20;81.10
2839;DHT22;1427;48.510;9.060;2022-07-23T15:25:46;30.30;81.30
2839;DHT22;1427;48.510;9.060;2022-07-23T15:28:17;30.40;81.50
2839;DHT22;1427;48.510;9.060;2022-07-23T15:30:47;30.50;80.60
2839;DHT22;1427;48.510;9.060;2022-07-23T15:33:16;30.50;80.20
2839;DHT22;1427;48.510;9.060;2022-07-23T15:35:47;30.30;80.70
2839;DHT22;1427;48.510;9.060;2022-07-23T15:38:17;30.30;81.20
2839;DHT22;1427;48.510;9.060;2022-07-23T15:40:52;30.30;79.60
2839;DHT22;1427;48.510;9.060;2022-07-23T15:43:21;30.30;81.30
2839;DHT22;1427;48.510;9.060;2022-07-23T15:45:50;30.20;81.40
2839;DHT22;1427;48.510;9.060;2022-07-23T15:48:19;30.00;80.60
2839;DHT22;1427;48.510;9.060;2022-07-23T15:50:48;29.80;80.80
2839;DHT22;1427;48.510;9.060;2022-07-23T15:53:17;29.60;81.70
2839;DHT22;1427;48.510;9.060;2022-07-23T15:56:03;29.50;81.90
2839;DHT22;1427;48.510;9.060;2022-07-23T15:58:35;29.60;82.00
2839;DHT22;1427;48.510;9.060;2022-07-23T16:01:05;29.50;81.50
2839;DHT22;1427;48.510;9.060;2022-07-23T16:03:35;29.50;80.90
2839;DHT22;1427;48.510;9.060;2022-07-23T16:06:05;29.50;80.10
2839;DHT22;1427;48.510;9.060;2022-07-23T16:08:45;29.50;81.00
2839;DHT22;1427;48.510;9.060;2022-07-23T16:11:14;29.50;81.80
2839;DHT22;1427;48.510;9.060;2022-07-23T16:13:42;29.60;82.40
2839;DHT22;1427;48.510;9.060;2022-07-23T16:16:10;29.60;81.50
2839;DHT22;1427;48.510;9.060;2022-07-23T16:18:39;29.60;81.70
2839;DHT22;1427;48.510;9.060;2022-07-23T16:21:07;29.50;80.90
2839;DHT22;1427;48.510;9.060;2022-07-23T16:23:41;29.50;81.30